createdAt,value
2023-01-17T00:02:25.178Z,29.90
2023-01-17T00:05:10.026Z,28.77
2023-01-17T00:07:54.918Z,28.75
2023-01-17T00:10:24.033Z,28.92
2023-01-17T00:12:51.901Z,28.50
2023-01-17T00:15:20.050Z,30.58
2023-01-17T00:17:47.350Z,29.33
2023-01-17T00:20:32.879Z,29.88
2023-01-17T00:23:17.621Z,29.27
2023-01-17T00:26:02.392Z,29.20
2023-01-17T00:28:29.112Z,29.05
2023-01-17T00:30:55.488Z,27.85
2023-01-17T00:33:22.400Z,28.70
2023-01-17T00:35:48.705Z,30.73
2023-01-17T00:38:16.481Z,30.88
2023-01-17T00:40:43.366Z,30.80
2023-01-17T00:43:29.624Z,32.17
2023-01-17T00:46:14.394Z,30.98
2023-01-17T00:48:59.562Z,32.42
2023-01-17T00:51:44.848Z,32.42
2023-01-17T00:54:29.748Z,31.83
2023-01-17T00:57:14.569Z,32.22
2023-01-17T00:59:59.414Z,31.75
2023-01-17T01:02:44.887Z,32.53
2023-01-17T01:05:30.405Z,30.95
2023-01-17T01:08:15.726Z,28.77
2023-01-17T01:11:00.859Z,30.95
2023-01-17T01:13:46.742Z,30.20
2023-01-17T01:16:32.224Z,30.48
2023-01-17T01:19:17.252Z,30.80
2023-01-17T01:22:02.411Z,30.15
2023-01-17T01:24:47.164Z,29.73
2023-01-17T01:27:32.524Z,29.30
2023-01-17T01:30:17.360Z,28.77
2023-01-17T01:33:02.298Z,29.25
2023-01-17T01:35:28.641Z,28.35
2023-01-17T01:37:55.164Z,22.70
2023-01-17T01:40:21.509Z,19.75
2023-01-17T01:42:52.180Z,21.73
2023-01-17T01:45:23.190Z,21.95
2023-01-17T01:47:50.178Z,23.38
2023-01-17T01:50:17.031Z,24.95
2023-01-17T01:52:44.674Z,25.27
2023-01-17T01:55:16.710Z,26.25
2023-01-17T01:57:46.870Z,24.65
2023-01-17T02:00:16.477Z,23.90
2023-01-17T02:02:44.120Z,22.50
2023-01-17T02:05:11.192Z,22.70
2023-01-17T02:08:03.719Z,24.08
2023-01-17T02:10:37.384Z,24.77
2023-01-17T02:13:04.021Z,24.55
2023-01-17T02:15:32.687Z,25.67
2023-01-17T02:18:01.861Z,25.27
2023-01-17T02:20:31.230Z,25.35
2023-01-17T02:23:00.628Z,25.33
2023-01-17T02:25:38.657Z,25.80
2023-01-17T02:28:23.777Z,25.85
2023-01-17T02:31:01.771Z,24.08
2023-01-17T02:36:04.670Z,23.23
2023-01-17T02:38:31.639Z,21.42
2023-01-17T02:41:07.647Z,20.67
2023-01-17T02:43:35.146Z,22.10
2023-01-17T02:46:01.645Z,21.55
2023-01-17T02:48:29.450Z,21.00
2023-01-17T02:50:55.791Z,19.63
2023-01-17T02:53:28.205Z,19.80
2023-01-17T02:56:13.334Z,20.13
2023-01-17T02:58:39.875Z,19.98
2023-01-17T03:01:16.218Z,16.75
2023-01-17T03:03:42.595Z,15.45
2023-01-17T03:06:21.186Z,16.40
2023-01-17T03:08:48.692Z,17.25
2023-01-17T03:11:15.269Z,18.10
2023-01-17T03:13:42.249Z,16.90
2023-01-17T03:16:12.820Z,16.02
2023-01-17T03:18:39.405Z,16.38
2023-01-17T03:21:05.851Z,17.25
2023-01-17T03:23:32.268Z,17.20
2023-01-17T03:25:58.641Z,15.93
2023-01-17T03:28:25.003Z,16.02
2023-01-17T03:30:51.471Z,16.58
2023-01-17T03:33:18.416Z,16.20
2023-01-17T03:35:45.357Z,16.25
2023-01-17T03:38:11.848Z,16.40
2023-01-17T03:40:38.198Z,16.67
2023-01-17T03:43:04.594Z,16.30
2023-01-17T03:45:30.962Z,16.58
2023-01-17T03:47:57.874Z,15.80
2023-01-17T03:50:24.315Z,17.02
2023-01-17T03:52:51.186Z,16.90
2023-01-17T03:55:17.934Z,15.80
2023-01-17T03:57:44.315Z,15.50
2023-01-17T04:00:11.207Z,16.15
2023-01-17T04:02:37.563Z,15.57
2023-01-17T04:05:04.133Z,15.52
2023-01-17T04:07:30.463Z,15.73
2023-01-17T04:09:56.946Z,15.23
2023-01-17T04:12:23.727Z,15.07
2023-01-17T04:14:50.054Z,15.88
2023-01-17T04:17:17.369Z,15.77
2023-01-17T04:19:43.938Z,15.05
2023-01-17T04:22:10.263Z,15.63
2023-01-17T04:24:36.632Z,14.07
2023-01-17T04:27:04.032Z,14.35
2023-01-17T04:29:30.522Z,14.25
2023-01-17T04:31:56.921Z,15.15
2023-01-17T04:34:23.340Z,15.70
2023-01-17T04:36:49.734Z,14.70
2023-01-17T04:39:16.129Z,15.45
2023-01-17T04:41:43.843Z,15.60
2023-01-17T04:44:10.246Z,15.23
2023-01-17T04:46:36.602Z,15.32
2023-01-17T04:49:02.931Z,16.00
2023-01-17T04:51:29.298Z,15.40
2023-01-17T04:53:55.732Z,15.25
2023-01-17T04:56:22.069Z,15.07
2023-01-17T04:58:48.431Z,14.90
2023-01-17T05:01:14.997Z,14.27
2023-01-17T05:03:41.510Z,14.40
2023-01-17T05:06:07.900Z,14.27
2023-01-17T05:08:34.287Z,14.13
2023-01-17T05:11:00.659Z,14.90
2023-01-17T05:13:27.019Z,14.98
2023-01-17T05:15:53.632Z,15.65
2023-01-17T05:18:20.343Z,14.45
2023-01-17T05:20:47.034Z,16.00
2023-01-17T05:23:13.447Z,16.30
2023-01-17T05:25:44.706Z,15.32
2023-01-17T05:28:12.160Z,15.52
2023-01-17T05:30:38.628Z,16.15
2023-01-17T05:33:05.016Z,16.42
2023-01-17T05:35:34.815Z,15.70
2023-01-17T05:38:01.399Z,15.38
2023-01-17T05:40:29.039Z,15.35
2023-01-17T05:42:56.273Z,15.57
2023-01-17T05:45:23.631Z,15.13
2023-01-17T05:47:51.013Z,16.05
2023-01-17T05:50:19.342Z,14.52
2023-01-17T05:52:53.024Z,14.63
2023-01-17T05:55:19.868Z,15.15
2023-01-17T05:57:46.523Z,14.77
2023-01-17T06:00:13.248Z,13.43
2023-01-17T06:02:40.015Z,11.82
2023-01-17T06:05:06.625Z,13.77
2023-01-17T06:07:33.129Z,13.93
2023-01-17T06:09:59.474Z,12.60
2023-01-17T06:12:26.071Z,12.05
2023-01-17T06:14:52.413Z,12.43
2023-01-17T06:17:18.820Z,12.27
2023-01-17T06:19:45.521Z,11.25
2023-01-17T06:22:11.911Z,10.32
2023-01-17T06:24:38.267Z,9.90
2023-01-17T06:27:04.600Z,10.65
2023-01-17T06:29:30.933Z,10.45
2023-01-17T06:31:57.318Z,10.85
2023-01-17T06:34:23.665Z,11.10
2023-01-17T06:36:50.010Z,9.93
2023-01-17T06:39:16.398Z,9.30
2023-01-17T06:41:43.134Z,9.50
2023-01-17T06:44:09.740Z,8.95
2023-01-17T06:46:36.260Z,9.25
2023-01-17T06:49:02.721Z,9.48
2023-01-17T06:51:29.094Z,9.55
2023-01-17T06:53:55.474Z,9.52
2023-01-17T06:56:21.906Z,9.10
2023-01-17T06:58:51.594Z,7.57
2023-01-17T07:01:18.348Z,7.35
2023-01-17T07:03:44.862Z,7.30
2023-01-17T07:06:11.428Z,7.95
2023-01-17T07:08:37.968Z,7.05
2023-01-17T07:11:05.821Z,6.85
2023-01-17T07:13:36.503Z,6.68
2023-01-17T07:16:03.708Z,6.90
2023-01-17T07:18:30.490Z,7.20
2023-01-17T07:20:56.970Z,7.13
2023-01-17T07:23:24.034Z,7.60
2023-01-17T07:25:51.039Z,7.05
2023-01-17T07:28:17.367Z,6.93
2023-01-17T07:30:44.476Z,6.80
2023-01-17T07:33:10.888Z,7.55
2023-01-17T07:35:37.368Z,7.07
2023-01-17T07:38:04.133Z,6.75
2023-01-17T07:40:31.197Z,8.50
2023-01-17T07:43:01.988Z,9.32
2023-01-17T07:45:28.360Z,12.02
2023-01-17T07:47:57.826Z,15.13
2023-01-17T07:50:24.174Z,10.93
2023-01-17T07:52:50.601Z,13.07
2023-01-17T07:55:16.960Z,10.40
2023-01-17T07:57:43.317Z,8.05
2023-01-17T08:00:10.017Z,7.90
2023-01-17T08:02:36.396Z,8.10
2023-01-17T08:05:02.789Z,8.07
2023-01-17T08:07:29.504Z,8.27
2023-01-17T08:09:55.927Z,8.07
2023-01-17T08:12:22.302Z,7.63
2023-01-17T08:14:48.665Z,7.53
2023-01-17T08:17:16.453Z,7.40
2023-01-17T08:19:43.346Z,7.60
2023-01-17T08:22:09.831Z,7.85
2023-01-17T08:24:37.474Z,7.57
2023-01-17T08:27:04.110Z,8.60
2023-01-17T08:29:30.455Z,12.02
2023-01-17T08:31:56.822Z,12.98
2023-01-17T08:34:23.188Z,10.23
2023-01-17T08:36:51.815Z,8.55
2023-01-17T08:39:18.647Z,7.20
2023-01-17T08:41:44.984Z,8.52
2023-01-17T08:44:11.566Z,8.15
2023-01-17T08:46:38.554Z,7.90
2023-01-17T08:49:05.161Z,8.75
2023-01-17T08:51:32.821Z,8.98
2023-01-17T08:53:59.138Z,7.88
2023-01-17T08:56:26.007Z,8.73
2023-01-17T08:58:52.395Z,8.50
2023-01-17T09:01:18.856Z,8.30
2023-01-17T09:03:45.670Z,8.00
2023-01-17T09:06:13.396Z,8.70
2023-01-17T09:08:40.002Z,8.65
2023-01-17T09:11:07.577Z,9.95
2023-01-17T09:13:33.977Z,10.40
2023-01-17T09:16:00.355Z,10.23
2023-01-17T09:18:27.654Z,10.05
2023-01-17T09:20:55.193Z,11.82
2023-01-17T09:23:22.375Z,12.98
2023-01-17T09:25:55.573Z,12.93
2023-01-17T09:28:21.993Z,15.88
2023-01-17T09:30:48.699Z,16.98
2023-01-17T09:33:15.537Z,17.25
2023-01-17T09:35:41.879Z,18.27
2023-01-17T09:38:08.254Z,16.73
2023-01-17T09:40:37.156Z,16.40
2023-01-17T09:43:05.457Z,16.65
2023-01-17T09:45:33.435Z,14.95
2023-01-17T09:50:35.993Z,13.85
2023-01-17T09:53:03.783Z,14.35
2023-01-17T09:55:56.362Z,14.63
2023-01-17T09:58:38.032Z,13.65
2023-01-17T10:01:14.763Z,13.00
2023-01-17T10:03:50.502Z,12.50
2023-01-17T10:06:16.842Z,12.73
2023-01-17T10:08:49.068Z,12.00
2023-01-17T10:11:18.479Z,11.63
2023-01-17T10:13:50.898Z,11.55
2023-01-17T10:16:17.305Z,11.18
2023-01-17T10:19:03.856Z,11.02
2023-01-17T10:21:40.761Z,11.15
2023-01-17T10:24:24.641Z,10.40
2023-01-17T10:26:53.395Z,9.73
2023-01-17T10:29:21.196Z,28.05
2023-01-17T10:32:14.012Z,22.77
2023-01-17T10:34:49.362Z,14.75
2023-01-17T10:37:36.420Z,20.35
2023-01-17T10:40:12.028Z,14.07
2023-01-17T10:42:44.203Z,11.15
2023-01-17T10:45:20.800Z,11.45
2023-01-17T10:47:52.470Z,15.70
2023-01-17T10:50:19.820Z,14.05
2023-01-17T10:52:53.272Z,15.98
2023-01-17T10:55:25.846Z,14.43
2023-01-17T10:57:52.921Z,13.18
2023-01-17T11:00:30.756Z,12.02
2023-01-17T11:05:25.853Z,11.07
2023-01-17T11:07:59.230Z,10.02
2023-01-17T11:10:54.042Z,9.68
2023-01-17T11:13:20.687Z,11.75
2023-01-17T11:15:51.496Z,25.90
2023-01-17T11:18:21.929Z,11.75
2023-01-17T11:20:48.612Z,8.35
2023-01-17T11:23:21.228Z,7.30
2023-01-17T11:25:50.516Z,7.35
2023-01-17T11:28:22.033Z,7.40
2023-01-17T11:30:55.955Z,7.80
2023-01-17T11:33:34.777Z,7.53
2023-01-17T11:36:01.093Z,8.05
2023-01-17T11:38:27.662Z,11.82
2023-01-17T11:41:13.991Z,46.63
2023-01-17T11:43:51.055Z,27.48
2023-01-17T11:46:18.672Z,11.30
2023-01-17T11:48:50.426Z,11.00
2023-01-17T11:51:18.913Z,33.28
2023-01-17T11:53:48.791Z,24.67
2023-01-17T11:56:19.796Z,13.63
2023-01-17T11:58:47.254Z,35.22
2023-01-17T12:01:32.365Z,31.88
2023-01-17T12:04:08.246Z,27.88
2023-01-17T12:06:51.587Z,22.58
2023-01-17T12:09:28.754Z,17.70
2023-01-17T12:12:35.100Z,14.50
2023-01-17T12:15:06.291Z,15.33
2023-01-17T12:17:51.572Z,14.48
2023-01-17T12:20:35.839Z,11.13
2023-01-17T12:23:20.514Z,11.10
2023-01-17T12:26:19.723Z,13.93
2023-01-17T12:29:04.141Z,14.82
2023-01-17T12:31:41.543Z,13.85
2023-01-17T12:34:24.315Z,11.10
2023-01-17T12:37:05.843Z,11.88
2023-01-17T12:39:40.365Z,10.02
2023-01-17T12:42:18.557Z,8.98
2023-01-17T12:44:51.591Z,8.30
2023-01-17T12:47:19.650Z,8.70
2023-01-17T12:49:50.272Z,5.97
2023-01-17T12:52:20.552Z,7.03
2023-01-17T12:54:49.607Z,6.22
2023-01-17T12:57:19.094Z,6.10
2023-01-17T12:59:54.634Z,6.55
2023-01-17T13:02:26.194Z,5.93
2023-01-17T13:05:11.585Z,6.15
2023-01-17T13:07:40.938Z,5.05
2023-01-17T13:10:07.312Z,4.75
2023-01-17T13:12:34.644Z,4.95
2023-01-17T13:15:03.012Z,4.80
2023-01-17T13:17:44.862Z,5.78
2023-01-17T13:20:37.383Z,5.30
2023-01-17T13:23:09.730Z,5.50
2023-01-17T13:25:48.638Z,4.70
2023-01-17T13:28:15.059Z,4.22
2023-01-17T13:30:44.400Z,4.90
2023-01-17T13:33:15.286Z,4.30
2023-01-17T13:35:58.161Z,3.63
2023-01-17T13:38:33.862Z,3.38
2023-01-17T13:41:19.124Z,3.28
2023-01-17T13:44:04.149Z,3.22
2023-01-17T13:46:53.568Z,3.30
2023-01-17T13:49:20.872Z,3.45
2023-01-17T13:52:13.236Z,3.40
2023-01-17T13:54:44.862Z,4.30
2023-01-17T13:57:23.531Z,5.10
2023-01-17T13:59:49.997Z,6.72
2023-01-17T14:02:31.779Z,6.75
2023-01-17T14:05:07.306Z,6.07
2023-01-17T14:07:35.739Z,6.47
2023-01-17T14:10:15.463Z,6.78
2023-01-17T14:12:41.834Z,7.10
2023-01-17T14:15:19.001Z,5.95
2023-01-17T14:17:50.877Z,7.90
2023-01-17T14:20:17.485Z,6.15
2023-01-17T14:22:48.683Z,4.93
2023-01-17T14:25:18.750Z,4.45
2023-01-17T14:27:47.160Z,3.80
2023-01-17T14:30:16.471Z,4.07
2023-01-17T14:33:08.809Z,5.40
2023-01-17T14:35:37.481Z,5.30
2023-01-17T14:38:10.376Z,6.43
2023-01-17T14:40:38.407Z,6.80
2023-01-17T14:43:11.810Z,6.40
2023-01-17T14:45:38.665Z,5.68
2023-01-17T14:48:15.581Z,6.63
2023-01-17T14:50:43.113Z,6.85
2023-01-17T14:53:12.627Z,8.57
2023-01-17T14:55:48.873Z,6.45
2023-01-17T14:58:22.845Z,7.68
2023-01-17T15:00:51.382Z,13.45
2023-01-17T15:03:17.873Z,15.52
2023-01-17T15:05:46.755Z,20.10
2023-01-17T15:08:14.288Z,15.23
2023-01-17T15:10:48.718Z,17.23
2023-01-17T15:13:19.933Z,22.33
2023-01-17T15:15:48.912Z,19.60
2023-01-17T15:18:19.673Z,19.92
2023-01-17T15:20:50.797Z,10.30
2023-01-17T15:23:19.001Z,12.60
2023-01-17T15:25:47.063Z,12.73
2023-01-17T15:28:13.766Z,16.08
2023-01-17T15:30:59.875Z,18.83
2023-01-17T15:33:26.369Z,16.05
2023-01-17T15:35:59.832Z,15.15
2023-01-17T15:38:26.397Z,13.05
2023-01-17T15:40:52.863Z,15.68
2023-01-17T15:43:20.564Z,11.88
2023-01-17T15:45:55.395Z,14.15
2023-01-17T15:48:30.732Z,12.45
2023-01-17T15:51:00.236Z,12.10
2023-01-17T15:53:32.139Z,10.98
2023-01-17T15:55:59.175Z,9.98
2023-01-17T15:58:27.668Z,9.03
2023-01-17T16:00:54.231Z,9.70
2023-01-17T16:03:22.863Z,9.48
2023-01-17T16:05:50.550Z,8.13
2023-01-17T16:08:22.865Z,9.40
2023-01-17T16:10:52.594Z,9.80
2023-01-17T16:13:18.914Z,10.82
2023-01-17T16:15:45.310Z,9.82
2023-01-17T16:18:11.811Z,9.95
2023-01-17T16:20:41.413Z,8.55
2023-01-17T16:23:09.329Z,9.63
2023-01-17T16:25:35.849Z,12.98
2023-01-17T16:28:03.364Z,15.57
2023-01-17T16:30:30.203Z,15.38
2023-01-17T16:32:59.515Z,15.32
2023-01-17T16:35:27.684Z,17.05
2023-01-17T16:37:55.059Z,13.50
2023-01-17T16:40:23.290Z,12.48
2023-01-17T16:42:50.061Z,14.65
2023-01-17T16:45:16.921Z,22.27
2023-01-17T16:47:44.225Z,29.33
2023-01-17T16:50:11.451Z,25.90
2023-01-17T16:52:38.097Z,28.88
2023-01-17T16:55:05.352Z,13.32
2023-01-17T16:57:32.296Z,9.88
2023-01-17T16:59:58.646Z,13.27
2023-01-17T17:02:25.035Z,17.30
2023-01-17T17:04:51.460Z,14.45
2023-01-17T17:07:17.829Z,14.45
2023-01-17T17:09:44.307Z,14.02
2023-01-17T17:12:10.715Z,15.82
2023-01-17T17:14:37.230Z,13.63
2023-01-17T17:17:03.659Z,13.20
2023-01-17T17:19:30.067Z,12.75
2023-01-17T17:21:59.763Z,12.80
2023-01-17T17:24:26.220Z,12.65
2023-01-17T17:26:52.554Z,17.40
2023-01-17T17:29:18.979Z,12.57
2023-01-17T17:31:45.389Z,11.38
2023-01-17T17:34:13.057Z,11.27
2023-01-17T17:36:39.505Z,14.25
2023-01-17T17:39:09.049Z,14.25
2023-01-17T17:41:36.326Z,17.73
2023-01-17T17:44:03.663Z,20.60
2023-01-17T17:46:30.546Z,17.83
2023-01-17T17:48:58.003Z,17.92
2023-01-17T17:51:27.406Z,19.63
2023-01-17T17:53:54.752Z,18.00
2023-01-17T17:56:21.836Z,16.98
2023-01-17T17:58:48.370Z,16.33
2023-01-17T18:01:14.945Z,14.27
2023-01-17T18:03:41.459Z,15.27
2023-01-17T18:06:09.297Z,15.52
2023-01-17T18:08:36.464Z,33.95
2023-01-17T18:11:14.923Z,18.47
2023-01-17T18:13:42.816Z,14.82
2023-01-17T18:16:10.992Z,11.05
2023-01-17T18:18:41.525Z,12.73
2023-01-17T18:21:14.889Z,13.40
2023-01-17T18:23:42.888Z,13.77
2023-01-17T18:26:16.803Z,14.48
2023-01-17T18:28:43.385Z,16.52
2023-01-17T18:31:09.915Z,18.30
2023-01-17T18:33:38.019Z,20.02
2023-01-17T18:38:38.357Z,24.73
2023-01-17T18:41:09.479Z,17.52
2023-01-17T18:43:35.887Z,19.58
2023-01-17T18:46:02.239Z,22.35
2023-01-17T18:48:28.630Z,29.40
2023-01-17T18:50:59.193Z,30.98
2023-01-17T18:53:25.835Z,30.92
2023-01-17T18:55:57.178Z,36.67
2023-01-17T18:58:24.459Z,39.30
2023-01-17T19:00:51.779Z,25.40
2023-01-17T19:03:18.940Z,19.50
2023-01-17T19:05:48.355Z,17.23
2023-01-17T19:08:15.945Z,25.00
2023-01-17T19:10:42.719Z,29.50
2023-01-17T19:13:09.529Z,36.30
2023-01-17T19:15:36.282Z,24.20
2023-01-17T19:18:03.749Z,21.77
2023-01-17T19:20:30.393Z,22.98
2023-01-17T19:22:56.812Z,41.75
2023-01-17T19:25:25.548Z,31.90
2023-01-17T19:27:52.961Z,28.85
2023-01-17T19:30:20.462Z,24.30
2023-01-17T19:32:49.295Z,22.52
2023-01-17T19:35:15.959Z,27.42
2023-01-17T19:37:46.327Z,29.17
2023-01-17T19:40:14.071Z,27.73
2023-01-17T19:42:40.693Z,29.30
2023-01-17T19:45:10.694Z,30.15
2023-01-17T19:47:37.365Z,42.38
2023-01-17T19:50:04.734Z,32.65
2023-01-17T19:52:31.116Z,29.65
2023-01-17T19:54:57.440Z,28.50
2023-01-17T19:57:24.327Z,29.90
2023-01-17T19:59:50.982Z,28.58
2023-01-17T20:02:17.448Z,27.83
2023-01-17T20:04:44.282Z,25.52
2023-01-17T20:07:10.619Z,24.17
2023-01-17T20:09:36.942Z,24.67
2023-01-17T20:12:03.353Z,25.35
2023-01-17T20:14:29.696Z,26.85
2023-01-17T20:16:56.031Z,29.92
2023-01-17T20:19:22.452Z,40.63
2023-01-17T20:21:48.786Z,28.83
2023-01-17T20:24:16.348Z,29.70
2023-01-17T20:26:44.031Z,26.75
2023-01-17T20:29:11.874Z,29.63
2023-01-17T20:31:39.401Z,34.20
2023-01-17T20:34:06.760Z,35.95
2023-01-17T20:36:33.323Z,36.00
2023-01-17T20:39:00.773Z,35.35
2023-01-17T20:41:27.122Z,39.45
2023-01-17T20:43:54.571Z,25.60
2023-01-17T20:46:22.063Z,31.30
2023-01-17T20:48:49.758Z,30.95
2023-01-17T20:51:17.105Z,40.25
2023-01-17T20:53:44.626Z,50.90
2023-01-17T20:56:12.657Z,43.47
2023-01-17T20:58:38.982Z,78.45
2023-01-17T21:01:05.982Z,47.20
2023-01-17T21:03:33.740Z,42.13
2023-01-17T21:06:04.892Z,45.20
2023-01-17T21:08:32.061Z,57.03
2023-01-17T21:10:58.619Z,46.63
2023-01-17T21:13:25.257Z,45.28
2023-01-17T21:15:52.020Z,38.17
2023-01-17T21:18:19.578Z,38.47
2023-01-17T21:20:46.677Z,49.08
2023-01-17T21:23:17.957Z,47.25
2023-01-17T21:26:04.588Z,49.33
2023-01-17T21:28:33.098Z,45.28
2023-01-17T21:30:59.678Z,48.00
2023-01-17T21:33:28.564Z,46.83
2023-01-17T21:35:55.060Z,45.60
2023-01-17T21:38:21.437Z,45.78
2023-01-17T21:40:47.838Z,39.47
2023-01-17T21:43:14.982Z,38.28
2023-01-17T21:45:41.731Z,42.20
2023-01-17T21:48:12.828Z,42.47
2023-01-17T21:50:39.393Z,36.17
2023-01-17T21:53:05.801Z,33.40
2023-01-17T21:55:50.935Z,36.03
2023-01-17T21:58:36.230Z,33.92
2023-01-17T22:01:15.729Z,36.30
2023-01-17T22:03:42.749Z,36.40
2023-01-17T22:06:10.245Z,37.58
2023-01-17T22:08:36.872Z,45.60
2023-01-17T22:11:04.307Z,47.72
2023-01-17T22:13:31.485Z,49.80
2023-01-17T22:15:58.843Z,53.70
2023-01-17T22:18:25.232Z,41.08
2023-01-17T22:20:51.573Z,37.55
2023-01-17T22:23:17.929Z,38.38
2023-01-17T22:25:44.320Z,37.20
2023-01-17T22:28:10.678Z,38.92
2023-01-17T22:30:37.314Z,40.15
2023-01-17T22:33:03.755Z,39.60
2023-01-17T22:35:30.134Z,41.58
2023-01-17T22:37:56.509Z,41.40
2023-01-17T22:40:22.892Z,38.90
2023-01-17T22:42:49.244Z,37.17
2023-01-17T22:45:17.334Z,38.10
2023-01-17T22:50:10.483Z,38.83
2023-01-17T22:52:36.859Z,38.58
2023-01-17T22:55:04.420Z,37.00
2023-01-17T22:57:30.746Z,36.05
2023-01-17T22:59:57.084Z,37.35
2023-01-17T23:02:23.474Z,35.35
2023-01-17T23:04:49.839Z,36.55
2023-01-17T23:07:16.211Z,36.13
2023-01-17T23:09:42.554Z,34.38
2023-01-17T23:12:08.885Z,36.97
2023-01-17T23:14:54.233Z,55.13
2023-01-17T23:17:40.038Z,43.95
2023-01-17T23:20:07.802Z,45.53
2023-01-17T23:22:34.567Z,44.72
2023-01-17T23:25:02.318Z,71.60
2023-01-17T23:27:51.052Z,92.97
2023-01-17T23:30:18.682Z,71.72
2023-01-17T23:32:49.256Z,42.65
2023-01-17T23:35:16.548Z,40.83
2023-01-17T23:38:01.296Z,37.42
2023-01-17T23:40:27.724Z,35.35
2023-01-17T23:43:17.268Z,32.80
2023-01-17T23:45:43.746Z,29.88
2023-01-17T23:48:10.692Z,32.47
2023-01-17T23:50:41.628Z,32.25
2023-01-17T23:53:09.305Z,32.03
2023-01-17T23:55:39.649Z,34.80
2023-01-17T23:58:07.002Z,36.38
